Time;durP1;ratioP1;P1;durP2;ratioP2;P2;SDS_P1;SDS_P2;PMS_P1;PMS_P2;Temp;Humidity;BMP_temperature;BMP_pressure;BME280_temperature;BME280_humidity;BME280_pressure;Samples;Min_cycle;Max_cycle;Signal;HPM_P1;HPM_P2
2023/01/01 00:00:27;;;;;;;34.13;20.35;;;;;;;8.35;100.00;98450.28;1761085;81;21658;-79
2023/01/01 00:02:56;;;;;;;31.42;17.77;;;;;;;8.50;100.00;98442.87;1761101;81;21022;-79
2023/01/01 00:05:23;;;;;;;27.77;15.50;;;;;;;8.58;100.00;98446.45;1761183;81;21062;-79
2023/01/01 00:07:50;;;;;;;28.92;16.10;;;;;;;8.59;100.00;98448.63;1761240;81;21066;-78
2023/01/01 00:10:29;;;;;;;26.25;15.55;;;;;;;8.55;100.00;98454.27;1761140;81;21062;-79
2023/01/01 00:12:56;;;;;;;;;;;;;;;8.57;100.00;98452.13;1763772;81;21335;-78
2023/01/01 00:15:24;;;;;;;28.67;17.10;;;;;;;8.37;100.00;98464.33;1761020;81;21111;-76
2023/01/01 00:17:51;;;;;;;25.05;15.08;;;;;;;8.37;100.00;98464.33;1761164;81;21067;-76
2023/01/01 00:20:18;;;;;;;45.35;24.55;;;;;;;8.30;100.00;98464.25;1761176;81;21043;-78
2023/01/01 00:22:45;;;;;;;67.82;36.40;;;;;;;8.27;100.00;98456.09;1761258;81;21002;-77
2023/01/01 00:25:16;;;;;;;55.40;33.35;;;;;;;8.31;100.00;98449.67;1761270;81;21503;-77
2023/01/01 00:27:43;;;;;;;57.15;34.98;;;;;;;8.26;100.00;98459.88;1761281;81;21132;-77
2023/01/01 00:30:11;;;;;;;62.73;36.75;;;;;;;8.16;100.00;98453.02;1761370;81;21475;-79
2023/01/01 00:32:38;;;;;;;442.12;217.10;;;;;;;8.04;100.00;98463.15;1761662;81;21042;-79
2023/01/01 00:35:06;;;;;;;118.33;64.62;;;;;;;7.93;100.00;98466.23;1739694;81;21003;-77
2023/01/01 00:37:33;;;;;;;96.17;55.28;;;;;;;7.90;100.00;98465.41;1731085;82;21074;-77
2023/01/01 00:40:00;;;;;;;119.00;60.55;;;;;;;7.78;100.00;98476.86;1731052;82;21147;-77
2023/01/01 00:42:27;;;;;;;116.42;63.78;;;;;;;7.76;100.00;98473.58;1730987;82;21105;-78
2023/01/01 00:44:54;;;;;;;97.50;52.48;;;;;;;7.75;100.00;98477.34;1730960;82;21066;-78
2023/01/01 00:47:21;;;;;;;263.50;135.75;;;;;;;7.72;100.00;98474.63;1731092;82;21023;-77
2023/01/01 00:49:47;;;;;;;138.97;75.95;;;;;;;7.67;100.00;98486.69;1730676;82;21015;-77
2023/01/01 00:52:14;;;;;;;118.60;68.67;;;;;;;7.61;100.00;98475.56;1731122;82;21188;-77
2023/01/01 00:54:41;;;;;;;360.25;191.25;;;;;;;7.60;100.00;98473.38;1730662;82;21015;-78
2023/01/01 00:57:08;;;;;;;141.53;83.85;;;;;;;7.57;100.00;98471.19;1758820;81;21007;-77
2023/01/01 00:59:35;;;;;;;113.00;60.23;;;;;;;7.48;100.00;98469.98;1760852;81;21011;-79
2023/01/01 01:02:02;;;;;;;91.25;52.55;;;;;;;7.47;100.00;98469.70;1761331;81;21030;-79
2023/01/01 01:04:29;;;;;;;64.45;35.08;;;;;;;7.45;100.00;98476.41;1760993;81;21579;-78
2023/01/01 01:06:56;;;;;;;70.05;42.17;;;;;;;7.49;100.00;98476.19;1761218;81;21377;-77
2023/01/01 01:09:23;;;;;;;79.90;47.73;;;;;;;7.56;100.00;98479.53;1761395;81;21449;-79
2023/01/01 01:11:50;;;;;;;51.53;29.63;;;;;;;7.52;100.00;98472.98;1760982;81;21012;-79
2023/01/01 01:14:17;;;;;;;34.92;21.07;;;;;;;7.42;100.00;98468.27;1761053;81;21066;-79
2023/01/01 01:16:44;;;;;;;28.45;16.40;;;;;;;7.42;100.00;98460.18;1760994;81;21168;-77
2023/01/01 01:19:14;;;;;;;28.12;14.95;;;;;;;7.45;100.00;98469.67;1761074;81;20992;-79
2023/01/01 01:21:40;;;;;;;29.87;16.97;;;;;;;7.43;100.00;98467.20;1760850;81;25969;-77
2023/01/01 01:24:06;;;;;;;28.52;16.85;;;;;;;7.38;100.00;98471.19;1744950;81;21055;-77
2023/01/01 01:26:35;;;;;;;31.68;18.50;;;;;;;7.27;100.00;98459.45;1730960;82;21060;-78
2023/01/01 01:29:02;;;;;;;34.48;19.48;;;;;;;7.13;100.00;98464.08;1731151;82;21185;-78
2023/01/01 01:31:31;;;;;;;39.05;25.30;;;;;;;7.03;100.00;98464.73;1730929;82;21067;-76
2023/01/01 01:33:58;;;;;;;33.25;19.52;;;;;;;6.97;100.00;98460.33;1737670;81;28108;-77
2023/01/01 01:36:25;;;;;;;50.00;28.95;;;;;;;6.98;100.00;98466.81;1745561;82;20985;-79
2023/01/01 01:38:52;;;;;;;39.38;22.93;;;;;;;6.95;100.00;98464.62;1768471;81;21051;-78
2023/01/01 01:41:22;;;;;;;41.13;24.75;;;;;;;6.94;100.00;98469.72;1768480;81;21100;-78
2023/01/01 01:43:57;;;;;;;44.05;25.08;;;;;;;6.89;100.00;98483.63;1768587;81;21065;-77
2023/01/01 01:46:34;;;;;;;45.10;26.35;;;;;;;6.81;100.00;98484.84;1745790;81;21044;-78
2023/01/01 01:49:13;;;;;;;44.93;26.20;;;;;;;6.74;100.00;98485.00;1768579;81;20996;-78
2023/01/01 01:51:40;;;;;;;38.98;22.98;;;;;;;6.60;100.00;98485.58;1768560;81;21623;-77
2023/01/01 01:54:11;;;;;;;40.15;22.85;;;;;;;6.50;100.00;98478.95;1745881;82;21036;-78
2023/01/01 01:56:49;;;;;;;43.63;24.00;;;;;;;6.46;100.00;98481.82;1762139;81;21445;-78
2023/01/01 01:59:17;;;;;;;35.88;20.77;;;;;;;6.43;100.00;98480.16;1732126;82;20988;-77
2023/01/01 02:01:44;;;;;;;40.00;19.35;;;;;;;6.34;100.00;98468.14;1750997;81;20993;-77
2023/01/01 02:04:10;;;;;;;36.38;22.27;;;;;;;6.28;100.00;98471.80;1731967;82;21447;-77
2023/01/01 02:06:38;;;;;;;39.60;21.12;;;;;;;6.25;100.00;98464.21;1751072;81;21017;-77
2023/01/01 02:09:06;;;;;;;37.05;20.30;;;;;;;6.17;100.00;98463.53;1732281;82;21006;-79
2023/01/01 02:11:32;;;;;;;169.60;76.37;;;;;;;6.16;100.00;98473.20;1723378;82;21529;-77
2023/01/01 02:14:00;;;;;;;95.92;50.52;;;;;;;6.16;100.00;98479.39;1731991;82;21001;-78
2023/01/01 02:16:50;;;;;;;43.23;27.30;;;;;;;6.15;100.00;98476.92;1751075;81;21073;-77
2023/01/01 02:19:42;;;;;;;45.88;28.47;;;;;;;6.19;100.00;98479.44;1739796;81;21886;-78
2023/01/01 02:22:37;;;;;;;34.23;20.20;;;;;;;6.17;100.00;98485.06;1770852;81;20984;-77
2023/01/01 02:25:24;;;;;;;60.78;34.10;;;;;;;6.13;100.00;98483.89;1750715;81;21524;-77
2023/01/01 02:28:12;;;;;;;105.27;55.43;;;;;;;6.05;100.00;98482.92;1771035;81;21429;-78
2023/01/01 02:30:39;;;;;;;343.17;177.15;;;;;;;6.04;100.00;98479.95;1769350;81;20988;-79
2023/01/01 02:33:13;;;;;;;74.22;41.98;;;;;;;5.93;100.00;98474.90;1771275;81;21546;-78
2023/01/01 02:35:58;;;;;;;130.00;67.87;;;;;;;5.89;100.00;98468.31;1766338;81;21016;-77
2023/01/01 02:38:35;;;;;;;99.75;57.88;;;;;;;5.88;100.00;98478.79;1768766;81;21511;-78
2023/01/01 02:41:11;;;;;;;83.60;52.40;;;;;;;5.85;100.00;98472.55;1745816;82;21536;-76
2023/01/01 02:43:39;;;;;;;53.52;32.35;;;;;;;5.82;100.00;98465.50;1759928;81;21067;-79
2023/01/01 02:46:07;;;;;;;72.85;43.68;;;;;;;5.80;100.00;98467.05;1768734;81;21093;-77
2023/01/01 02:48:42;;;;;;;56.50;31.82;;;;;;;5.80;100.00;98458.98;1745951;82;21010;-79
2023/01/01 02:51:44;;;;;;;62.48;37.20;;;;;;;5.81;100.00;98462.49;1768823;81;21066;-78
2023/01/01 02:54:38;;;;;;;62.40;40.15;;;;;;;5.83;100.00;98457.19;1745902;82;21678;-77
2023/01/01 02:57:31;;;;;;;57.05;36.88;;;;;;;5.82;100.00;98454.21;1760562;81;21453;-79
2023/01/01 03:00:30;;;;;;;33.42;20.48;;;;;;;5.83;100.00;98455.84;1708666;82;21052;-77
2023/01/01 03:03:14;;;;;;;28.73;18.77;;;;;;;5.89;100.00;98452.70;1751105;81;20998;-78
2023/01/01 03:06:22;;;;;;;31.60;18.60;;;;;;;5.92;100.00;98446.90;1732217;81;21062;-77
2023/01/01 03:09:20;;;;;;;28.90;16.77;;;;;;;5.97;100.00;98452.89;1750885;81;21045;-77
2023/01/01 03:12:22;;;;;;;28.40;15.35;;;;;;;5.94;100.00;98446.94;1731807;82;21003;-77
2023/01/01 03:14:55;;;;;;;29.23;16.32;;;;;;;5.92;100.00;98450.41;1751125;81;21755;-77
2023/01/01 03:17:35;;;;;;;27.85;16.17;;;;;;;5.83;100.00;98456.38;1731937;82;20980;-78
2023/01/01 03:20:06;;;;;;;23.95;14.35;;;;;;;5.84;100.00;98451.28;1751304;81;21026;-79
2023/01/01 03:22:35;;;;;;;29.92;16.52;;;;;;;5.83;100.00;98452.34;1702469;82;21405;-78
2023/01/01 03:25:09;;;;;;;27.98;16.05;;;;;;;5.84;100.00;98445.90;1751394;81;21482;-78
2023/01/01 03:27:41;;;;;;;29.57;16.23;;;;;;;5.81;100.00;98440.98;1723439;82;21549;-77
2023/01/01 03:30:09;;;;;;;29.95;17.65;;;;;;;5.74;100.00;98442.48;1751355;81;21014;-77
2023/01/01 03:35:57;;;;;;;29.52;17.73;;;;;;;5.73;100.00;98446.23;1760294;81;20966;-79
2023/01/01 03:38:40;;;;;;;27.60;17.00;;;;;;;5.73;100.00;98448.11;1750653;82;21051;-77
2023/01/01 03:41:12;;;;;;;26.12;15.60;;;;;;;5.77;100.00;98439.84;1763461;81;21012;-77
2023/01/01 03:43:53;;;;;;;27.52;14.85;;;;;;;5.76;100.00;98443.05;1757685;81;21059;-77
2023/01/01 03:46:26;;;;;;;27.40;16.20;;;;;;;5.90;100.00;98439.08;1771203;81;20999;-78
2023/01/01 03:48:56;;;;;;;23.30;15.48;;;;;;;6.17;100.00;98434.47;1750232;82;21528;-77
2023/01/01 03:51:51;;;;;;;18.70;12.15;;;;;;;6.20;100.00;98444.73;1771085;81;21000;-78
2023/01/01 03:55:01;;;;;;;33.80;21.20;;;;;;;6.15;100.00;98445.47;1771051;81;21119;-78
2023/01/01 03:57:34;;;;;;;23.57;14.55;;;;;;;6.07;100.00;98439.66;1738627;82;21002;-77
2023/01/01 04:00:15;;;;;;;24.87;16.30;;;;;;;5.88;100.00;98440.31;1739104;82;21019;-78
2023/01/01 04:03:03;;;;;;;26.40;15.58;;;;;;;5.78;100.00;98446.31;1738477;82;21042;-77
2023/01/01 04:05:31;;;;;;;25.02;14.78;;;;;;;5.80;100.00;98454.14;1749344;81;21074;-77
2023/01/01 04:08:00;;;;;;;23.22;14.78;;;;;;;5.82;100.00;98446.67;1731068;82;21166;-77
2023/01/01 04:10:28;;;;;;;;;;;;;;;5.78;100.00;98446.84;1722548;82;21051;-78
2023/01/01 04:12:56;;;;;;;20.95;13.28;;;;;;;5.73;100.00;98446.76;1719238;83;20189;-78
2023/01/01 04:15:26;;;;;;;22.32;12.30;;;;;;;5.63;100.00;98442.78;1731195;82;21014;-77
2023/01/01 04:17:53;;;;;;;22.30;13.22;;;;;;;5.63;100.00;98451.38;1748876;82;22195;-77
2023/01/01 04:20:20;;;;;;;20.97;12.15;;;;;;;5.61;100.00;98447.58;1731191;82;21014;-77
2023/01/01 04:22:47;;;;;;;25.35;12.20;;;;;;;5.58;100.00;98435.97;1748947;82;21145;-77
2023/01/01 04:25:16;;;;;;;24.67;15.28;;;;;;;5.49;100.00;98437.92;1702105;82;21027;-76
2023/01/01 04:27:43;;;;;;;24.02;13.90;;;;;;;5.53;100.00;98447.13;1749081;82;21070;-76
2023/01/01 04:30:12;;;;;;;29.48;15.83;;;;;;;5.54;100.00;98446.89;1701978;82;20995;-77
2023/01/01 04:32:38;;;;;;;20.37;12.05;;;;;;;5.54;100.00;98452.80;1749097;82;21502;-78
2023/01/01 04:35:07;;;;;;;20.55;11.08;;;;;;;5.50;100.00;98454.33;1771265;80;20988;-77
2023/01/01 04:37:37;;;;;;;23.32;11.28;;;;;;;5.48;100.00;98443.83;1780108;80;21004;-78
2023/01/01 04:40:05;;;;;;;18.98;11.55;;;;;;;5.44;100.00;98449.89;1780220;80;21007;-77
2023/01/01 04:42:32;;;;;;;16.35;8.73;;;;;;;5.43;100.00;98446.92;1780168;80;21586;-78
2023/01/01 04:44:59;;;;;;;15.68;9.43;;;;;;;5.40;100.00;98444.72;1780257;80;21015;-77
2023/01/01 04:47:26;;;;;;;15.25;9.05;;;;;;;5.36;100.00;98445.16;1779849;80;21992;-77
2023/01/01 04:49:53;;;;;;;15.72;9.78;;;;;;;5.36;100.00;98446.51;1780060;80;20991;-76
2023/01/01 04:52:20;;;;;;;17.17;10.25;;;;;;;5.34;100.00;98441.91;1780058;80;21050;-78
2023/01/01 04:54:47;;;;;;;22.87;14.98;;;;;;;5.34;100.00;98441.09;1779845;80;21002;-77
2023/01/01 04:57:14;;;;;;;16.32;10.68;;;;;;;5.37;100.00;98449.48;1780066;80;21467;-77
2023/01/01 04:59:41;;;;;;;13.93;8.33;;;;;;;5.43;100.00;98450.95;1779875;80;21050;-78
2023/01/01 05:02:08;;;;;;;14.90;9.38;;;;;;;5.41;100.00;98458.44;1747524;81;21019;-78
2023/01/01 05:04:35;;;;;;;26.02;13.78;;;;;;;5.36;100.00;98451.88;1761139;81;20992;-78
2023/01/01 05:07:02;;;;;;;19.98;11.53;;;;;;;5.37;100.00;98458.89;1761247;81;20983;-78
2023/01/01 05:09:29;;;;;;;20.30;12.95;;;;;;;5.38;100.00;98451.64;1761008;81;21027;-77
2023/01/01 05:11:56;;;;;;;18.95;11.30;;;;;;;5.37;100.00;98465.61;1761125;81;21490;-78
2023/01/01 05:14:22;;;;;;;21.17;10.15;;;;;;;5.40;100.00;98454.12;1761216;81;21070;-77
2023/01/01 05:16:49;;;;;;;19.48;12.93;;;;;;;5.38;100.00;98460.55;1761105;81;21070;-77
2023/01/01 05:19:16;;;;;;;18.42;10.53;;;;;;;5.35;100.00;98467.72;1761196;81;20983;-78
2023/01/01 05:21:45;;;;;;;22.35;12.37;;;;;;;5.34;100.00;98462.59;1761314;81;21003;-77
2023/01/01 05:24:12;;;;;;;24.05;13.80;;;;;;;5.29;100.00;98455.22;1761229;81;21054;-77
2023/01/01 05:26:43;;;;;;;17.87;11.18;;;;;;;5.27;100.00;98471.29;1761271;81;21019;-78
2023/01/01 05:29:10;;;;;;;24.55;13.53;;;;;;;5.28;100.00;98460.83;1761210;81;21007;-76
2023/01/01 05:31:37;;;;;;;25.35;12.55;;;;;;;5.24;100.00;98462.36;1761324;81;21027;-78
2023/01/01 05:34:04;;;;;;;21.75;12.18;;;;;;;5.18;100.00;98460.61;1752825;81;21148;-76
2023/01/01 05:36:37;;;;;;;21.68;12.80;;;;;;;5.13;100.00;98454.61;1731134;82;21065;-77
2023/01/01 05:39:08;;;;;;;23.20;12.80;;;;;;;5.09;100.00;98458.80;1730933;82;21029;-77
2023/01/01 05:41:35;;;;;;;21.75;11.65;;;;;;;5.06;100.00;98452.56;1730878;82;21015;-77
2023/01/01 05:44:05;;;;;;;20.27;12.20;;;;;;;5.04;100.00;98450.61;1730963;82;21023;-78
2023/01/01 05:46:32;;;;;;;24.07;13.08;;;;;;;5.03;100.00;98448.45;1730833;82;21695;-76
2023/01/01 05:48:59;;;;;;;22.67;12.00;;;;;;;5.02;100.00;98448.16;1731060;82;20987;-77
2023/01/01 05:51:27;;;;;;;24.85;12.85;;;;;;;5.06;100.00;98439.94;1731262;82;21075;-78
2023/01/01 05:53:54;;;;;;;23.30;14.40;;;;;;;5.09;100.00;98456.92;1731073;82;21027;-77
2023/01/01 05:56:21;;;;;;;20.27;12.70;;;;;;;5.09;100.00;98462.83;1749121;81;21535;-78
2023/01/01 05:58:48;;;;;;;18.57;11.43;;;;;;;5.06;100.00;98463.30;1761364;81;21007;-77
2023/01/01 06:01:22;;;;;;;22.40;12.33;;;;;;;5.07;100.00;98467.63;1761599;81;21047;-77
2023/01/01 06:03:49;;;;;;;19.85;11.45;;;;;;;5.10;100.00;98475.20;1761200;81;21063;-77
2023/01/01 06:06:21;;;;;;;20.08;12.00;;;;;;;5.13;100.00;98477.94;1761472;81;21031;-77
2023/01/01 06:08:53;;;;;;;20.68;13.05;;;;;;;5.13;100.00;98475.25;1761223;81;21027;-78
2023/01/01 06:11:20;;;;;;;25.62;13.00;;;;;;;5.12;100.00;98481.16;1761512;81;21020;-78
2023/01/01 06:13:47;;;;;;;25.00;13.58;;;;;;;5.13;100.00;98497.59;1761311;81;21067;-78
2023/01/01 06:16:13;;;;;;;22.60;13.35;;;;;;;5.18;100.00;98508.97;1761335;81;21538;-77
2023/01/01 06:18:40;;;;;;;24.18;13.50;;;;;;;5.20;100.00;98516.26;1761305;81;21010;-77
2023/01/01 06:21:10;;;;;;;25.60;16.93;;;;;;;5.20;100.00;98512.23;1761295;81;21059;-77
2023/01/01 06:23:37;;;;;;;24.80;14.83;;;;;;;5.18;100.00;98527.24;1761039;81;21868;-78
2023/01/01 06:26:11;;;;;;;32.15;19.02;;;;;;;5.20;100.00;98531.85;1731408;81;21012;-78
2023/01/01 06:28:38;;;;;;;28.38;17.17;;;;;;;5.25;100.00;98537.89;1761360;81;21020;-77
2023/01/01 06:31:06;;;;;;;41.33;27.30;;;;;;;5.25;100.00;98537.36;1761356;81;21050;-78
2023/01/01 06:33:33;;;;;;;29.27;17.57;;;;;;;5.29;100.00;98553.30;1759070;81;21027;-78
2023/01/01 06:36:04;;;;;;;31.23;18.67;;;;;;;5.32;100.00;98560.91;1701480;82;41220;-76
2023/01/01 06:38:32;;;;;;;25.57;17.15;;;;;;;5.36;100.00;98558.56;1730571;82;21070;-77
2023/01/01 06:41:02;;;;;;;31.10;18.62;;;;;;;5.36;100.00;98557.22;1731120;82;21074;-78
2023/01/01 06:43:30;;;;;;;26.20;17.45;;;;;;;5.35;100.00;98568.50;1702099;82;21594;-77
2023/01/01 06:46:16;;;;;;;30.02;20.17;;;;;;;5.37;100.00;98567.73;1731194;82;21015;-78
2023/01/01 06:48:43;;;;;;;22.77;13.13;;;;;;;5.40;100.00;98565.66;1730577;82;21067;-78
2023/01/01 06:51:14;;;;;;;22.87;14.35;;;;;;;5.40;100.00;98568.34;1731112;82;20988;-78
2023/01/01 06:53:41;;;;;;;23.62;15.25;;;;;;;5.40;100.00;98586.63;1730702;82;21071;-78
2023/01/01 06:56:08;;;;;;;22.20;13.93;;;;;;;5.44;100.00;98578.38;1746155;81;21050;-77
2023/01/01 06:58:35;;;;;;;25.37;14.47;;;;;;;5.49;100.00;98578.52;1761218;81;21456;-78
2023/01/01 07:01:10;;;;;;;20.85;12.37;;;;;;;5.54;100.00;98581.30;1761347;81;21158;-78
2023/01/01 07:03:37;;;;;;;19.62;11.30;;;;;;;5.71;100.00;98578.73;1729567;81;21016;-78
2023/01/01 07:06:05;;;;;;;17.57;10.65;;;;;;;5.88;100.00;98584.22;1761498;81;21007;-77
2023/01/01 07:08:33;;;;;;;21.83;12.43;;;;;;;5.92;100.00;98589.47;1761173;81;21472;-77
2023/01/01 07:11:01;;;;;;;20.20;11.50;;;;;;;5.85;100.00;98591.42;1761474;81;21047;-77
2023/01/01 07:13:28;;;;;;;18.98;12.35;;;;;;;5.81;100.00;98597.81;1761096;81;21179;-79
2023/01/01 07:15:55;;;;;;;21.50;12.53;;;;;;;5.79;100.00;98600.42;1761243;81;21487;-78
2023/01/01 07:18:23;;;;;;;18.75;12.33;;;;;;;5.85;100.00;98594.11;1761021;81;21019;-77
2023/01/01 07:20:53;;;;;;;22.93;12.70;;;;;;;5.84;100.00;98602.70;1761382;81;21055;-77
2023/01/01 07:23:20;;;;;;;21.80;12.15;;;;;;;5.84;100.00;98606.74;1760832;81;21082;-77
2023/01/01 07:25:48;;;;;;;22.30;12.78;;;;;;;5.86;100.00;98603.81;1761375;81;21102;-79
2023/01/01 07:28:15;;;;;;;23.52;13.00;;;;;;;5.93;100.00;98597.82;1761139;81;20992;-79
2023/01/01 07:30:42;;;;;;;20.92;13.68;;;;;;;5.99;100.00;98598.23;1761311;81;21302;-77
2023/01/01 07:33:12;;;;;;;25.25;13.68;;;;;;;6.03;100.00;98606.11;1761237;81;21551;-79
2023/01/01 07:35:39;;;;;;;25.20;12.68;;;;;;;6.05;100.00;98605.34;1732578;81;21011;-79
2023/01/01 07:38:07;;;;;;;57.88;32.80;;;;;;;6.13;100.00;98609.02;1730846;82;21827;-77
2023/01/01 07:40:34;;;;;;;25.15;15.40;;;;;;;6.16;100.00;98611.78;1731045;82;21070;-79
2023/01/01 07:43:00;;;;;;;31.93;16.85;;;;;;;6.19;100.00;98607.26;1730954;82;21538;-79
2023/01/01 07:45:27;;;;;;;40.25;26.90;;;;;;;6.18;100.00;98609.13;1731051;82;20995;-77
2023/01/01 07:47:55;;;;;;;38.33;27.67;;;;;;;6.28;100.00;98615.78;1731017;82;21085;-78
2023/01/01 07:50:24;;;;;;;173.40;83.20;;;;;;;6.39;100.00;98621.66;1731154;82;20999;-79
2023/01/01 07:52:50;;;;;;;58.80;36.17;;;;;;;6.43;100.00;98618.80;1731123;82;21090;-77
2023/01/01 07:55:18;;;;;;;49.98;32.10;;;;;;;6.49;100.00;98624.05;1735619;81;21023;-79
2023/01/01 07:57:46;;;;;;;41.35;27.27;;;;;;;6.57;100.00;98627.41;1761501;81;22214;-77
2023/01/01 08:00:16;;;;;;;28.12;17.55;;;;;;;6.63;100.00;98634.00;1761117;81;21074;-77
2023/01/01 08:02:43;;;;;;;30.55;18.62;;;;;;;6.70;100.00;98628.48;1761232;81;21117;-78
2023/01/01 08:05:10;;;;;;;45.48;29.63;;;;;;;6.73;100.00;98628.81;1761352;81;20988;-77
2023/01/01 08:07:37;;;;;;;49.67;35.95;;;;;;;6.81;100.00;98633.53;1761109;81;21012;-77
2023/01/01 08:10:05;;;;;;;52.35;36.88;;;;;;;6.87;100.00;98632.58;1761384;81;21074;-78
2023/01/01 08:12:32;;;;;;;43.40;31.93;;;;;;;6.93;100.00;98637.02;1761310;81;21206;-79
2023/01/01 08:14:59;;;;;;;37.95;29.55;;;;;;;7.00;100.00;98643.05;1761381;81;21176;-79
2023/01/01 08:17:26;;;;;;;38.65;27.07;;;;;;;7.06;100.00;98637.52;1761165;81;21012;-77
2023/01/01 08:19:53;;;;;;;44.85;29.52;;;;;;;7.11;100.00;98644.89;1761456;81;21019;-77
2023/01/01 08:22:20;;;;;;;76.12;42.90;;;;;;;7.20;100.00;98644.78;1761226;81;21023;-79
2023/01/01 08:24:47;;;;;;;65.52;37.83;;;;;;;7.33;100.00;98645.00;1761049;81;21520;-77
2023/01/01 08:27:14;;;;;;;60.08;34.27;;;;;;;7.47;100.00;98645.52;1761338;81;21059;-77
2023/01/01 08:29:43;;;;;;;46.28;26.62;;;;;;;7.67;100.00;98654.45;1760963;81;21074;-77
2023/01/01 08:32:11;;;;;;;58.83;38.75;;;;;;;7.90;100.00;98650.24;1760721;81;21027;-78
2023/01/01 08:34:38;;;;;;;45.12;30.23;;;;;;;8.16;100.00;98644.15;1759540;81;21277;-79
2023/01/01 08:37:06;;;;;;;48.83;28.12;;;;;;;8.26;100.00;98648.88;1757734;81;21484;-79
2023/01/01 08:39:33;;;;;;;112.60;62.55;;;;;;;8.37;100.00;98648.50;1757640;81;21359;-77
2023/01/01 08:41:59;;;;;;;62.08;40.05;;;;;;;8.51;100.00;98655.70;1745808;82;21497;-77
2023/01/01 08:44:26;;;;;;;65.00;38.48;;;;;;;8.68;100.00;98664.03;1768330;81;20996;-79
2023/01/01 08:46:53;;;;;;;34.27;23.47;;;;;;;8.78;100.00;98658.47;1745933;82;21449;-77
2023/01/01 08:49:20;;;;;;;31.97;19.02;;;;;;;8.87;100.00;98656.41;1768471;81;21067;-79
2023/01/01 08:51:47;;;;;;;82.45;41.30;;;;;;;9.08;100.00;98648.55;1768721;81;21010;-77
2023/01/01 08:54:14;;;;;;;133.12;63.92;;;;;;;9.38;100.00;98666.95;1745553;82;21005;-77
2023/01/01 08:56:41;;;;;;;79.47;38.95;;;;;;;9.59;100.00;98666.08;1769432;81;21458;-77
2023/01/01 08:59:08;;;;;;;52.73;27.30;;;;;;;9.77;100.00;98681.92;1779952;80;20987;-77
2023/01/01 09:01:35;;;;;;;31.33;20.80;;;;;;;9.98;100.00;98688.30;1780440;80;21567;-77
2023/01/01 09:04:01;;;;;;;82.10;43.98;;;;;;;10.04;96.29;98689.16;1761152;81;21003;-78
2023/01/01 09:06:28;;;;;;;55.38;31.20;;;;;;;10.16;100.00;98686.53;1761694;81;21428;-79
2023/01/01 09:08:55;;;;;;;84.40;42.45;;;;;;;10.24;100.00;98687.16;1761410;81;20991;-77
2023/01/01 09:11:27;;;;;;;163.68;82.62;;;;;;;10.29;100.00;98693.97;1761616;81;20999;-79
2023/01/01 09:13:54;;;;;;;221.47;118.80;;;;;;;10.36;100.00;98701.34;1761255;81;21015;-79
2023/01/01 09:16:21;;;;;;;84.05;46.08;;;;;;;10.43;100.00;98703.28;1731353;81;21913;-78
2023/01/01 09:18:48;;;;;;;90.35;50.35;;;;;;;10.52;99.61;98704.95;1761173;81;21047;-79
2023/01/01 09:21:15;;;;;;;61.65;37.50;;;;;;;10.67;98.25;98700.41;1761449;81;21015;-79
2023/01/01 09:23:42;;;;;;;44.95;28.90;;;;;;;10.81;98.02;98695.88;1761244;81;21000;-79
2023/01/01 09:26:09;;;;;;;33.20;20.72;;;;;;;10.91;97.46;98693.20;1761620;81;21071;-77
2023/01/01 09:28:36;;;;;;;32.95;19.52;;;;;;;10.98;98.01;98696.48;1731008;81;21181;-79
2023/01/01 09:31:05;;;;;;;25.35;15.38;;;;;;;11.03;97.49;98695.16;1731229;81;21020;-79
2023/01/01 09:33:32;;;;;;;40.48;27.07;;;;;;;11.03;98.13;98690.28;1759643;81;21025;-79
2023/01/01 09:36:29;;;;;;;42.78;26.17;;;;;;;11.01;98.24;98680.48;1731184;82;21027;-79
2023/01/01 09:38:57;;;;;;;47.75;30.50;;;;;;;10.96;98.40;98673.70;1660664;85;21052;-78
2023/01/01 09:41:38;;;;;;;56.05;34.10;;;;;;;10.90;98.45;98672.05;1724027;82;21747;-77
2023/01/01 09:44:44;;;;;;;90.40;52.35;;;;;;;10.84;98.48;98670.39;1738368;82;20979;-79
2023/01/01 09:47:29;;;;;;;150.45;92.97;;;;;;;10.72;97.14;98662.49;1739346;82;21550;-77
2023/01/01 09:50:00;;;;;;;97.40;52.43;;;;;;;10.58;97.66;98661.34;1727138;82;21038;-77
2023/01/01 09:52:33;;;;;;;70.42;39.13;;;;;;;10.51;97.66;98659.44;1739291;82;21014;-79
2023/01/01 09:55:02;;;;;;;93.50;50.52;;;;;;;10.43;97.18;98645.84;1739938;81;21031;-77
2023/01/01 09:57:30;;;;;;;59.85;33.70;;;;;;;10.36;97.52;98644.45;1769845;80;20983;-77
2023/01/01 09:59:58;;;;;;;31.85;18.35;;;;;;;10.38;97.71;98643.09;1770084;81;21082;-77
2023/01/01 10:02:55;;;;;;;28.60;16.52;;;;;;;10.50;97.46;98644.77;1769890;81;21011;-79
2023/01/01 10:05:59;;;;;;;67.03;30.37;;;;;;;10.70;97.20;98651.66;1674972;85;21103;-77
2023/01/01 10:08:37;;;;;;;87.70;47.60;;;;;;;11.05;94.65;98644.72;1780225;80;22032;-79
2023/01/01 10:11:25;;;;;;;44.70;28.40;;;;;;;11.26;94.81;98639.59;1780425;80;21453;-77
2023/01/01 10:13:52;;;;;;;23.62;13.75;;;;;;;11.50;93.58;98631.21;1761256;81;21016;-79
2023/01/01 10:16:27;;;;;;;39.53;18.80;;;;;;;11.78;91.41;98633.11;1761556;81;21472;-79
2023/01/01 10:18:56;;;;;;;28.55;15.23;;;;;;;12.09;89.99;98638.00;1761204;81;21074;-77
2023/01/01 10:21:32;;;;;;;20.52;11.10;;;;;;;12.30;87.45;98632.78;1761550;81;21165;-77
2023/01/01 10:24:19;;;;;;;21.60;14.33;;;;;;;12.50;85.63;98629.20;1761147;81;21013;-77
2023/01/01 10:26:46;;;;;;;15.70;11.08;;;;;;;12.66;85.62;98622.63;1754239;81;21070;-77
2023/01/01 10:29:17;;;;;;;29.98;14.35;;;;;;;12.88;83.63;98624.14;1761223;81;21062;-79
2023/01/01 10:31:47;;;;;;;26.48;15.05;;;;;;;12.99;84.33;98625.19;1761494;81;21015;-79
2023/01/01 10:34:31;;;;;;;19.65;12.37;;;;;;;13.08;83.12;98618.61;1750692;81;21094;-78
2023/01/01 10:36:57;;;;;;;28.05;15.90;;;;;;;13.23;81.61;98617.16;1730183;82;22101;-77
2023/01/01 10:39:24;;;;;;;29.12;16.00;;;;;;;13.36;83.89;98610.83;1730804;82;21530;-79
2023/01/01 10:41:51;;;;;;;24.95;15.32;;;;;;;13.46;82.88;98613.47;1701928;82;21019;-79
2023/01/01 10:44:28;;;;;;;22.80;13.58;;;;;;;13.54;84.08;98608.78;1743655;81;21266;-78
2023/01/01 10:46:57;;;;;;;27.00;19.52;;;;;;;13.61;85.16;98610.63;1751695;81;20986;-79
2023/01/01 10:49:24;;;;;;;27.07;17.85;;;;;;;13.72;85.32;98606.72;1723827;81;21072;-77
2023/01/01 10:51:52;;;;;;;40.03;20.05;;;;;;;13.90;83.78;98602.47;1751465;81;21006;-78
2023/01/01 10:54:35;;;;;;;41.23;22.98;;;;;;;14.16;81.65;98600.30;1751632;81;20994;-79
2023/01/01 10:57:15;;;;;;;167.28;86.70;;;;;;;14.37;82.35;98597.63;1733851;81;21082;-79
2023/01/01 10:59:43;;;;;;;52.03;28.32;;;;;;;14.44;81.87;98593.19;1710923;82;21471;-78
2023/01/01 11:02:22;;;;;;;45.55;25.68;;;;;;;14.47;81.17;98587.17;1731140;82;21000;-79
2023/01/01 11:04:50;;;;;;;22.85;12.80;;;;;;;14.44;80.93;98590.47;1727521;82;21495;-78
2023/01/01 11:07:26;;;;;;;28.00;16.05;;;;;;;14.43;81.28;98593.45;1731168;82;21007;-79
2023/01/01 11:09:57;;;;;;;31.97;18.60;;;;;;;14.36;81.41;98586.46;1730961;82;21008;-78
2023/01/01 11:12:26;;;;;;;28.83;17.02;;;;;;;14.35;79.34;98581.27;1731065;82;21141;-79
2023/01/01 11:14:53;;;;;;;35.85;18.23;;;;;;;14.29;80.96;98577.81;1730976;82;20968;-79
2023/01/01 11:17:26;;;;;;;34.30;17.75;;;;;;;14.23;81.54;98580.33;1731176;82;21085;-78
2023/01/01 11:19:53;;;;;;;32.50;17.25;;;;;;;14.14;82.19;98586.70;1730801;82;21369;-77
2023/01/01 11:22:50;;;;;;;22.67;13.43;;;;;;;14.07;82.12;98593.30;1731134;82;21024;-77
2023/01/01 11:25:22;;;;;;;20.57;11.38;;;;;;;13.99;82.63;98587.12;1730767;82;21826;-79
2023/01/01 11:27:49;;;;;;;19.45;10.18;;;;;;;13.95;83.08;98589.36;1730986;82;21146;-80
2023/01/01 11:30:25;;;;;;;22.73;10.70;;;;;;;13.93;82.78;98584.72;1730965;82;21075;-77
2023/01/01 11:33:00;;;;;;;26.68;16.05;;;;;;;14.03;81.54;98590.91;1731334;82;21062;-79
2023/01/01 11:35:34;;;;;;;32.17;17.23;;;;;;;14.12;82.08;98587.00;1756993;81;20988;-77
2023/01/01 11:38:01;;;;;;;21.80;10.88;;;;;;;14.13;82.35;98585.09;1761094;81;21055;-79